MST,Max TemperatureF,Mean TemperatureF,Min TemperatureF,Max Dew PointF,MeanDew PointF,Min DewpointF,Max Humidity, Mean Humidity, Min Humidity, Max Sea Level PressureIn, Mean Sea Level PressureIn, Min Sea Level PressureIn, Max VisibilityMiles, Mean VisibilityMiles, Min VisibilityMiles, Max Wind SpeedMPH, Mean Wind SpeedMPH, Max Gust SpeedMPH,PrecipitationIn, CloudCover, Events, WindDirDegrees
2011-10-1,95,84,72,64,51,44,73,46,19,30.10,29.95,29.84,10,10,8,33,10,40,0.03,3,Rain-Thunderstorm,147
2011-10-2,93,80,66,58,54,46,68,44,20,30.10,29.95,29.85,10,10,6,23,6,26,0.01,1,Rain-Thunderstorm,148
2011-10-3,92,80,68,54,50,43,49,34,18,30.07,29.90,29.81,10,10,10,21,9,28,0.00,1,Thunderstorm,130
2011-10-4,90,78,66,53,46,39,58,38,18,30.00,29.83,29.70,10,10,9,32,11,43,T,1,Rain,189
2011-10-5,85,73,61,50,42,32,65,41,16,29.97,29.83,29.73,10,10,10,16,6,21,0.00,0,,196
2011-10-6,73,64,55,55,48,35,80,54,28,29.90,29.81,29.72,10,10,6,25,8,31,0.02,5,Rain,289
2011-10-7,71,61,51,50,35,26,89,55,21,29.99,29.92,29.83,10,10,10,17,6,25,0.00,1,,283
2011-10-8,75,60,45,31,27,21,58,36,14,30.02,29.96,29.88,10,10,10,12,5,16,0.00,0,,270
2011-10-9,82,65,48,31,27,24,46,29,12,30.00,29.89,29.81,10,10,9,9,5,15,0.00,0,,190
2011-10-10,86,69,52,30,28,22,41,25,9,29.98,29.85,29.77,10,10,10,13,6,16,0.00,0,,152
2011-10-11,88,71,53,31,27,21,38,24,9,29.97,29.86,29.78,10,10,10,12,5,16,0.00,0,,161
2011-10-12,93,74,55,37,32,27,35,24,12,29.97,29.86,29.78,10,10,10,10,5,17,0.00,0,,138
2011-10-13,97,79,60,36,32,27,36,22,8,29.96,29.83,29.74,10,10,9,14,5,17,0.00,0,,138
2011-10-14,97,79,60,34,32,28,36,23,9,29.98,29.84,29.76,10,10,10,14,5,17,0.00,0,,153
2011-10-15,99,81,62,34,31,25,32,20,7,30.02,29.86,29.75,10,10,6,14,6,17,0.00,0,,177
2011-10-16,95,79,62,36,31,28,30,20,10,30.03,29.92,29.84,10,10,9,16,6,22,0.00,0,,178
2011-10-17,93,77,60,39,34,29,36,24,11,30.08,29.95,29.88,10,10,10,16,7,22,0.00,0,,138
2011-10-18,93,76,59,36,31,25,36,23,10,30.08,29.93,29.84,10,10,10,13,5,17,0.00,0,,132
2011-10-19,96,78,59,33,28,26,26,18,9,29.90,29.83,29.74,10,10,10,22,7,29,0.00,0,,130
2011-10-20,91,76,60,37,32,28,36,23,10,30.10,29.95,29.86,10,10,10,16,6,23,0.00,0,,180
2011-10-21,91,76,60,49,42,33,46,33,19,30.13,30.00,29.92,10,10,6,9,4,14,0.00,1,,148
2011-10-22,92,77,62,46,42,35,52,34,15,30.02,29.95,29.88,10,10,10,13,5,16,0.00,0,,116
2011-10-23,93,77,61,40,36,31,43,27,11,30.07,29.94,29.86,10,10,9,13,5,24,0.00,0,,142
2011-10-24,91,76,61,39,36,33,36,25,14,29.98,29.94,29.88,10,10,10,14,6,23,0.00,1,,160
2011-10-25,89,75,61,50,40,36,48,32,15,29.98,29.91,29.83,10,10,10,20,7,25,0.00,1,,202
2011-10-26,80,70,60,53,41,25,60,40,19,29.92,29.80,29.73,10,10,9,23,11,29,0.00,1,,236
2011-10-27,75,61,47,34,27,19,40,29,17,30.05,29.94,29.86,10,10,10,12,4,14,0.00,0,,284
2011-10-28,84,67,49,34,31,26,50,31,12,30.13,30.01,29.94,10,10,10,16,6,20,0.00,0,,121
2011-10-29,85,70,55,34,32,30,41,28,14,30.11,29.98,29.91,10,10,10,13,5,17,0.00,0,,156
2011-10-30,88,71,53,33,29,22,41,25,9,30.10,30.01,29.94,10,10,10,12,6,14,0.00,0,,145
2011-10-31,90,72,54,28,26,23,32,21,9,30.00,29.93,29.84,10,10,10,15,6,20,0.00,0,,140